createdAt,value
2023-04-25T00:03:51.162Z,7.7
2023-04-25T00:09:50.543Z,7.7
2023-04-25T00:15:50.578Z,7.7
2023-04-25T00:21:50.512Z,7.6
2023-04-25T00:27:50.521Z,7.6
2023-04-25T00:33:51.111Z,7.5
2023-04-25T00:39:50.562Z,7.5
2023-04-25T00:45:50.527Z,7.4
2023-04-25T00:51:50.504Z,7.4
2023-04-25T00:57:50.508Z,7.3
2023-04-25T01:03:51.177Z,7.3
2023-04-25T01:09:50.517Z,7.3
2023-04-25T01:15:50.509Z,7.2
2023-04-25T01:21:50.514Z,7.2
2023-04-25T01:27:50.514Z,7.1
2023-04-25T01:33:50.948Z,7.1
2023-04-25T01:39:50.500Z,7
2023-04-25T01:45:50.558Z,7
2023-04-25T01:51:50.512Z,6.9
2023-04-25T01:57:50.498Z,6.9
2023-04-25T02:03:51.067Z,6.9
2023-04-25T02:09:50.502Z,6.9
2023-04-25T02:15:50.563Z,7
2023-04-25T02:21:50.513Z,7.2
2023-04-25T02:27:50.712Z,7.2
2023-04-25T02:33:50.827Z,7.2
2023-04-25T02:39:50.498Z,7.2
2023-04-25T02:51:50.499Z,7.3
2023-04-25T02:57:50.497Z,7.2
2023-04-25T03:03:50.860Z,7.2
2023-04-25T03:09:50.643Z,7.1
2023-04-25T03:15:50.495Z,7.1
2023-04-25T03:21:50.515Z,7.1
2023-04-25T03:27:50.502Z,7.1
2023-04-25T03:33:50.864Z,7
2023-04-25T03:39:50.822Z,6.9
2023-04-25T03:45:50.516Z,7
2023-04-25T03:51:50.507Z,7.1
2023-04-25T03:57:50.510Z,7.2
2023-04-25T04:03:50.929Z,7.1
2023-04-25T04:09:50.487Z,7.3
2023-04-25T04:15:50.535Z,7.3
2023-04-25T04:21:50.525Z,7.3
2023-04-25T04:27:50.504Z,7.3
2023-04-25T04:33:50.801Z,7.5
2023-04-25T04:40:00.791Z,7.5
2023-04-25T04:45:50.509Z,7.5
2023-04-25T04:51:50.509Z,7.4
2023-04-25T04:57:50.497Z,7.5
2023-04-25T05:03:51.040Z,7.5
2023-04-25T05:09:50.521Z,7.5
2023-04-25T05:15:50.532Z,7.6
2023-04-25T05:21:50.511Z,7.6
2023-04-25T05:27:50.499Z,7.4
2023-04-25T05:33:50.809Z,7.6
2023-04-25T05:39:50.502Z,7.6
2023-04-25T05:45:50.819Z,7.8
2023-04-25T05:51:50.491Z,7.7
2023-04-25T05:57:51.722Z,7.6
2023-04-25T06:03:50.966Z,7.7
2023-04-25T06:09:50.475Z,7.9
2023-04-25T06:15:50.523Z,8.3
2023-04-25T06:21:50.487Z,8.2
2023-04-25T06:27:50.500Z,8.1
2023-04-25T06:33:50.729Z,8.1
2023-04-25T06:39:50.490Z,8.1
2023-04-25T06:45:50.478Z,8.2
2023-04-25T06:51:50.485Z,9.5
2023-04-25T06:58:00.783Z,9.3
2023-04-25T07:03:50.763Z,8.8
2023-04-25T07:09:50.508Z,8.7
2023-04-25T07:21:52.323Z,8.2
2023-04-25T07:27:50.523Z,7.5
2023-04-25T07:33:50.488Z,7.7
2023-04-25T07:39:50.502Z,7.5
2023-04-25T07:45:50.570Z,7.6
2023-04-25T07:51:50.505Z,7.8
2023-04-25T07:57:50.507Z,7.2
2023-04-25T08:03:50.745Z,7.2
2023-04-25T08:09:50.498Z,7.4
2023-04-25T08:15:50.556Z,7.3
2023-04-25T08:21:50.496Z,7.5
2023-04-25T08:27:50.499Z,7.6
2023-04-25T08:33:50.512Z,7.4
2023-04-25T08:39:50.493Z,7.4
2023-04-25T08:45:50.520Z,7.3
2023-04-25T08:51:50.494Z,7.6
2023-04-25T08:57:50.514Z,7.2
2023-04-25T09:03:50.608Z,6.8
2023-04-25T09:09:50.495Z,6.3
2023-04-25T09:15:50.503Z,6.8
2023-04-25T09:21:50.483Z,6.5
2023-04-25T09:27:50.488Z,6.4
2023-04-25T09:33:51.415Z,6.4
2023-04-25T09:39:50.482Z,6.2
2023-04-25T09:45:50.509Z,6.5
2023-04-25T09:51:50.557Z,6.2
2023-04-25T09:57:50.504Z,6.5
2023-04-25T10:09:50.504Z,6.1
2023-04-25T10:15:50.539Z,6.4
2023-04-25T10:21:50.490Z,7
2023-04-25T10:27:50.482Z,6.7
2023-04-25T10:33:50.833Z,6.4
2023-04-25T10:39:50.475Z,6.7
2023-04-25T10:45:50.493Z,6.6
2023-04-25T10:51:55.026Z,5.8
2023-04-25T10:57:50.474Z,5.9
2023-04-25T11:09:50.490Z,6.3
2023-04-25T11:15:55.112Z,6.6
2023-04-25T11:21:50.473Z,6.4
2023-04-25T11:27:50.488Z,6.3
2023-04-25T11:33:50.699Z,7.1
2023-04-25T11:39:50.478Z,6.5
2023-04-25T11:45:50.557Z,5.9
2023-04-25T11:51:50.509Z,5.8
2023-04-25T11:57:50.475Z,6
2023-04-25T12:03:50.736Z,6
2023-04-25T12:09:50.484Z,5.8
2023-04-25T12:15:50.557Z,6
2023-04-25T12:21:57.929Z,6.1
2023-04-25T12:27:50.492Z,5.7
2023-04-25T12:33:50.539Z,6.2
2023-04-25T12:39:50.478Z,6.1
2023-04-25T12:45:50.536Z,6.3
2023-04-25T12:51:50.485Z,5.5
2023-04-25T12:57:50.481Z,5.6
2023-04-25T13:03:50.755Z,6.1
2023-04-25T13:09:50.485Z,5.5
2023-04-25T13:15:50.488Z,5.7
2023-04-25T13:21:50.535Z,5.5
2023-04-25T13:27:50.493Z,5.3
2023-04-25T13:33:50.720Z,5.2
2023-04-25T13:39:50.480Z,5.3
2023-04-25T13:45:50.558Z,5.1
2023-04-25T13:51:50.555Z,5.3
2023-04-25T13:57:50.496Z,5.4
2023-04-25T14:03:50.727Z,5.4
2023-04-25T14:09:50.477Z,5.4
2023-04-25T14:15:50.527Z,4.8
2023-04-25T14:21:50.473Z,5.2
2023-04-25T14:27:50.510Z,5.3
2023-04-25T14:33:50.777Z,5.5
2023-04-25T14:39:50.482Z,5.1
2023-04-25T14:45:50.485Z,5.8
2023-04-25T14:51:51.815Z,5.5
2023-04-25T14:57:50.469Z,5.4
2023-04-25T15:03:51.170Z,5.8
2023-04-25T15:09:50.490Z,5.7
2023-04-25T15:15:50.505Z,5.5
2023-04-25T15:21:50.494Z,5.3
2023-04-25T15:27:50.490Z,5.3
2023-04-25T15:33:50.675Z,5.2
2023-04-25T15:39:50.483Z,5.6
2023-04-25T15:45:50.506Z,5.5
2023-04-25T15:51:50.478Z,4.9
2023-04-25T15:57:50.488Z,5.1
2023-04-25T16:03:50.857Z,4.9
2023-04-25T16:09:50.493Z,5.2
2023-04-25T16:15:50.555Z,5.3
2023-04-25T16:21:50.485Z,5.3
2023-04-25T16:27:50.538Z,5.2
2023-04-25T16:33:50.672Z,5.2
2023-04-25T16:39:50.487Z,5.2
2023-04-25T16:45:50.473Z,5.1
2023-04-25T16:51:50.484Z,5.4
2023-04-25T16:57:50.486Z,5.5
2023-04-25T17:03:50.730Z,5.7
2023-04-25T17:09:50.478Z,5.7
2023-04-25T17:15:50.475Z,5.7
2023-04-25T17:21:50.495Z,5.3
2023-04-25T17:27:50.482Z,5.3
2023-04-25T17:33:50.490Z,5.4
2023-04-25T17:39:50.466Z,5.4
2023-04-25T17:45:50.531Z,5.6
2023-04-25T17:51:50.530Z,5.6
2023-04-25T17:57:50.482Z,5.6
2023-04-25T18:03:50.742Z,5.8
2023-04-25T18:09:50.469Z,5.9
2023-04-25T18:15:50.544Z,6.1
2023-04-25T18:21:50.473Z,6
2023-04-25T18:27:50.486Z,6
2023-04-25T18:33:50.626Z,6.1
2023-04-25T18:39:50.478Z,6.1
2023-04-25T18:45:50.527Z,6.2
2023-04-25T18:51:50.458Z,6.4
2023-04-25T18:57:50.481Z,6.4
2023-04-25T19:03:50.901Z,6.3
2023-04-25T19:09:50.477Z,6.4
2023-04-25T19:15:50.465Z,6.4
2023-04-25T19:21:50.473Z,6.1
2023-04-25T19:27:50.486Z,6.1
2023-04-25T19:33:50.693Z,5.9
2023-04-25T19:39:50.461Z,5.8
2023-04-25T19:45:50.510Z,5.7
2023-04-25T19:51:50.498Z,5.6
2023-04-25T19:57:50.469Z,5.6
2023-04-25T20:09:50.464Z,5.7
2023-04-25T20:15:50.462Z,5.8
2023-04-25T20:21:50.468Z,5.7
2023-04-25T20:27:50.581Z,5.7
2023-04-25T20:33:50.467Z,5.8
2023-04-25T20:39:50.474Z,5.8
2023-04-25T20:45:50.518Z,5.9
2023-04-25T20:51:50.480Z,5.8
2023-04-25T20:57:50.478Z,5.9
2023-04-25T21:03:50.614Z,5.9
2023-04-25T21:09:50.682Z,5.9
2023-04-25T21:15:50.485Z,6
2023-04-25T21:21:50.458Z,6
2023-04-25T21:27:50.482Z,6
2023-04-25T21:33:50.477Z,6.1
2023-04-25T21:39:50.485Z,6
2023-04-25T21:46:14.786Z,6.1
2023-04-25T21:51:50.470Z,6
2023-04-25T21:57:50.490Z,6.1
2023-04-25T22:03:50.526Z,6.2
2023-04-25T22:09:54.850Z,6.1
2023-04-25T22:15:50.494Z,6.3
2023-04-25T22:21:50.469Z,6.3
2023-04-25T22:27:50.469Z,6.4
2023-04-25T22:33:50.457Z,6.4
2023-04-25T22:39:50.486Z,6.4
2023-04-25T22:45:50.495Z,6.4
2023-04-25T22:51:50.498Z,6.4
2023-04-25T22:58:00.790Z,6.4
2023-04-25T23:03:50.651Z,6.5
2023-04-25T23:09:50.447Z,6.6
2023-04-25T23:21:50.446Z,6.8
2023-04-25T23:27:50.460Z,6.7
2023-04-25T23:33:50.489Z,6.8
2023-04-25T23:39:50.485Z,6.7
2023-04-25T23:51:50.491Z,6.6
2023-04-25T23:57:50.486Z,6.6
